Time;durP1;ratioP1;P1;durP2;ratioP2;P2;SDS_P1;SDS_P2;PMS_P1;PMS_P2;Temp;Humidity;BMP_temperature;BMP_pressure;BME280_temperature;BME280_humidity;BME280_pressure;Samples;Min_cycle;Max_cycle;Signal;HPM_P1;HPM_P2
2021/08/11 00:00:24;;;;;;;;;9.00;6.00;;;;;21.37;62.04;101567.25;5058043;28;46122;-91
2021/08/11 00:02:50;;;;;;;;;5.00;5.00;;;;;21.35;62.13;101565.50;5057989;28;45236;-90
2021/08/11 00:05:15;;;;;;;;;4.00;3.33;;;;;21.32;62.07;101562.88;5058043;28;45369;-91
2021/08/11 00:07:41;;;;;;;;;6.67;3.67;;;;;21.36;62.12;101586.00;5059091;28;45295;-92
2021/08/11 00:10:07;;;;;;;;;5.00;5.00;;;;;21.25;62.50;101564.75;5058924;28;46479;-90
2021/08/11 00:12:33;;;;;;;;;6.00;4.67;;;;;21.31;62.18;101586.06;5057150;28;45276;-91
2021/08/11 00:14:59;;;;;;;;;5.67;4.00;;;;;21.32;62.53;101582.44;5058178;28;45496;-91
2021/08/11 00:17:25;;;;;;;;;5.67;5.67;;;;;21.22;62.44;101576.38;5057604;28;45326;-92
2021/08/11 00:19:50;;;;;;;;;4.33;4.00;;;;;21.21;62.13;101568.38;5057549;28;46036;-91
2021/08/11 00:22:16;;;;;;;;;4.00;4.00;;;;;21.16;62.29;101574.66;5056486;28;45764;-91
2021/08/11 00:24:42;;;;;;;;;4.00;4.00;;;;;21.20;62.52;101583.53;5056924;28;45387;-90
2021/08/11 00:27:07;;;;;;;;;3.33;3.33;;;;;21.12;62.13;101572.94;5057812;28;45264;-91
2021/08/11 00:29:33;;;;;;;;;4.00;4.00;;;;;21.13;62.36;101582.72;5057839;28;45553;-90
2021/08/11 00:31:58;;;;;;;;;4.33;3.33;;;;;21.10;62.40;101571.19;5056804;28;45227;-91
2021/08/11 00:34:24;;;;;;;;;3.00;3.00;;;;;21.12;62.34;101580.97;5058334;28;45388;-90
2021/08/11 00:36:49;;;;;;;;;3.00;2.00;;;;;21.03;62.38;101573.06;5073980;28;45445;-90
2021/08/11 00:39:15;;;;;;;;;6.00;4.00;;;;;21.08;62.57;101589.03;5055955;28;46855;-91
2021/08/11 00:41:44;;;;;;;;;6.00;5.00;;;;;21.15;62.72;101599.63;5057661;28;45240;-90
2021/08/11 00:44:13;;;;;;;;;3.00;3.00;;;;;21.07;62.63;101601.50;5056422;28;45430;-90
2021/08/11 00:46:43;;;;;;;;;4.00;3.00;;;;;21.01;62.87;101594.47;5056981;28;45456;-90
2021/08/11 00:49:16;;;;;;;;;3.00;3.00;;;;;20.97;62.53;101590.03;5072450;28;47346;-91
2021/08/11 00:51:43;;;;;;;;;2.67;2.67;;;;;20.94;62.53;101593.63;5058272;28;45380;-91
2021/08/11 00:54:10;;;;;;;;;4.67;4.67;;;;;21.03;63.09;101611.34;5073412;28;45333;-91
2021/08/11 00:56:39;;;;;;;;;2.33;2.00;;;;;20.94;62.77;101600.75;5058567;28;45384;-90
2021/08/11 00:59:06;;;;;;;;;2.00;2.00;;;;;21.06;62.84;101618.47;5075775;28;46431;-91
2021/08/11 01:01:32;;;;;;;;;3.00;3.00;;;;;21.07;63.11;101622.88;5077507;28;45338;-90
2021/08/11 01:04:00;;;;;;;;;4.00;2.00;;;;;20.96;62.60;101606.09;5075217;28;45301;-90
2021/08/11 01:06:27;;;;;;;;;3.00;3.00;;;;;20.94;62.97;101601.63;5070154;28;45604;-91
2021/08/11 01:08:54;;;;;;;;;2.00;2.00;;;;;21.01;62.53;101612.28;5073304;28;47393;-88
2021/08/11 01:11:21;;;;;;;;;3.33;2.00;;;;;20.95;62.90;101597.19;5076888;28;45295;-90
2021/08/11 01:13:47;;;;;;;;;2.33;2.33;;;;;21.01;62.54;101606.94;5076585;28;45247;-89
2021/08/11 01:16:12;;;;;;;;;4.00;3.00;;;;;21.05;62.29;101614.91;5072855;28;45405;-90
2021/08/11 01:18:38;;;;;;;;;4.00;3.00;;;;;20.94;62.11;101587.38;5075034;28;47242;-90
2021/08/11 01:21:15;;;;;;;;;1.33;1.33;;;;;21.05;62.19;101603.31;5055749;28;45346;-90
2021/08/11 01:23:55;;;;;;;;;1.67;1.67;;;;;21.04;61.89;101596.22;5061663;28;45502;-91
2021/08/11 01:26:42;;;;;;;;;1.33;1.33;;;;;21.02;61.61;101598.03;5058146;28;45536;-89
2021/08/11 01:29:14;;;;;;;;;2.67;2.33;;;;;20.85;61.59;101580.38;5060353;28;46910;-89
2021/08/11 01:31:52;;;;;;;;;4.00;2.33;;;;;20.92;61.47;101591.84;5060571;28;45381;-90
2021/08/11 01:34:30;;;;;;;;;2.33;2.00;;;;;20.90;61.63;101583.88;5059572;28;45342;-89
2021/08/11 01:37:01;;;;;;;;;2.00;2.00;;;;;20.87;61.55;101581.25;5060578;28;45408;-89
2021/08/11 01:39:35;;;;;;;;;2.33;2.33;;;;;20.90;61.56;101591.88;5059734;28;46318;-90
2021/08/11 01:42:06;;;;;;;;;2.33;2.33;;;;;20.73;61.23;101568.03;5061887;28;45322;-90
2021/08/11 01:44:48;;;;;;;;;3.67;2.67;;;;;20.77;61.10;101575.09;5067995;28;45698;-89
2021/08/11 01:47:18;;;;;;;;;3.00;3.00;;;;;20.85;61.01;101593.75;5070199;28;45380;-89
2021/08/11 01:49:47;;;;;;;;;2.67;2.67;;;;;20.74;60.99;101576.94;5084780;28;47809;-89
2021/08/11 01:52:14;;;;;;;;;3.00;1.67;;;;;20.78;60.96;101582.25;5073344;28;45415;-89
2021/08/11 01:54:42;;;;;;;;;2.33;2.00;;;;;20.76;60.59;101575.13;5072621;28;45372;-89
2021/08/11 01:57:09;;;;;;;;;3.00;2.00;;;;;20.64;60.83;101561.03;5065852;28;45322;-89
2021/08/11 01:59:38;;;;;;;;;2.00;2.00;;;;;20.69;60.75;101569.88;5075685;28;48674;-90
2021/08/11 02:02:04;;;;;;;;;2.33;2.00;;;;;20.70;60.68;101578.78;5059833;28;45490;-91
2021/08/11 02:04:30;;;;;;;;;2.00;2.00;;;;;20.56;60.76;101560.25;5058869;28;45339;-90
2021/08/11 02:06:58;;;;;;;;;4.00;3.00;;;;;20.54;60.59;101562.91;5060127;28;45353;-89
2021/08/11 02:09:25;;;;;;;;;2.00;2.00;;;;;20.57;61.08;101564.66;5059726;28;46277;-90
2021/08/11 02:11:50;;;;;;;;;2.00;2.00;;;;;20.48;61.28;101549.63;5059840;28;45267;-89
2021/08/11 02:14:16;;;;;;;;;3.00;1.00;;;;;20.48;61.04;101561.19;5060281;28;45190;-89
2021/08/11 02:16:42;;;;;;;;;2.00;2.00;;;;;20.54;61.05;101570.06;5058862;28;45260;-90
2021/08/11 02:19:09;;;;;;;;;1.00;1.00;;;;;20.39;61.02;101547.06;5058097;28;47158;-89
2021/08/11 02:21:35;;;;;;;;;1.67;1.67;;;;;20.39;60.67;101550.59;5074736;28;45345;-89
2021/08/11 02:24:02;;;;;;;;;3.00;2.33;;;;;20.35;61.35;101543.53;5075032;28;45421;-89
2021/08/11 02:26:35;;;;;;;;;2.00;2.00;;;;;20.41;61.37;101563.97;5057861;28;45356;-89
2021/08/11 02:29:21;;;;;;;;;4.33;3.00;;;;;20.33;61.08;101562.25;5059341;28;46522;-89
2021/08/11 02:31:58;;;;;;;;;2.00;1.00;;;;;20.38;60.71;101578.22;5059115;28;45434;-89
2021/08/11 02:34:30;;;;;;;;;2.00;2.00;;;;;20.28;60.64;101560.53;5057832;28;45498;-89
2021/08/11 02:36:59;;;;;;;;;2.33;2.33;;;;;20.34;60.45;101569.38;5057581;28;45441;-89
2021/08/11 02:39:31;;;;;;;;;2.67;1.33;;;;;20.31;60.17;101557.81;5058764;28;45231;-89
2021/08/11 02:42:03;;;;;;;;;2.67;2.67;;;;;20.27;60.17;101550.72;5058672;28;45335;-90
2021/08/11 02:44:37;;;;;;;;;1.67;1.67;;;;;20.21;60.20;101557.03;5057936;28;45461;-89
2021/08/11 02:47:03;;;;;;;;;2.67;2.33;;;;;20.17;60.09;101541.94;5059531;28;45453;-90
2021/08/11 02:49:32;;;;;;;;;3.00;2.33;;;;;20.13;59.80;101538.44;5059196;28;46385;-90
2021/08/11 02:51:59;;;;;;;;;1.00;1.00;;;;;20.25;59.80;101564.09;5074535;28;45869;-89
2021/08/11 02:54:26;;;;;;;;;3.00;2.00;;;;;20.19;59.86;101554.38;5057797;28;45356;-90
2021/08/11 02:56:54;;;;;;;;;3.00;1.33;;;;;20.13;59.73;101544.66;5057531;28;45739;-89
2021/08/11 02:59:22;;;;;;;;;2.00;2.00;;;;;20.17;60.22;101556.19;5062286;28;46234;-89
2021/08/11 03:01:48;;;;;;;;;1.67;1.67;;;;;20.13;60.02;101559.78;5059668;28;45405;-89
2021/08/11 03:04:14;;;;;;;;;2.00;2.00;;;;;20.16;59.91;101573.09;5078779;28;45315;-89
2021/08/11 03:06:40;;;;;;;;;2.33;2.00;;;;;20.15;60.18;101571.31;5063486;28;45440;-88
2021/08/11 03:09:08;;;;;;;;;3.00;3.00;;;;;19.97;60.33;101549.19;5064932;28;48204;-89
2021/08/11 03:11:35;;;;;;;;;2.00;2.00;;;;;20.09;60.27;101563.38;5067754;28;45644;-89
2021/08/11 03:14:05;;;;;;;;;3.00;2.00;;;;;20.06;60.12;101556.25;5066232;28;45431;-89
2021/08/11 03:16:30;;;;;;;;;2.00;2.00;;;;;19.98;60.38;101545.66;5065984;28;44831;-89
2021/08/11 03:18:56;;;;;;;;;4.00;2.00;;;;;19.99;60.43;101558.06;5062120;28;45475;-91
2021/08/11 03:21:22;;;;;;;;;3.00;3.00;;;;;19.96;60.36;101558.13;5059143;28;45225;-90
2021/08/11 03:23:47;;;;;;;;;3.33;2.00;;;;;19.94;60.70;101562.59;5074810;28;45398;-89
2021/08/11 03:26:13;;;;;;;;;2.67;2.00;;;;;19.83;60.82;101538.66;5058691;28;45596;-89
2021/08/11 03:28:39;;;;;;;;;2.00;2.00;;;;;19.86;60.86;101551.09;5062797;28;46140;-89
2021/08/11 03:31:04;;;;;;;;;3.67;3.00;;;;;19.76;60.64;101548.50;5064041;28;45424;-89
2021/08/11 03:33:30;;;;;;;;;2.00;2.00;;;;;19.86;60.56;101562.63;5066312;28;45354;-88
2021/08/11 03:35:55;;;;;;;;;3.67;2.00;;;;;19.83;60.96;101569.78;5065622;28;45378;-89
2021/08/11 03:38:21;;;;;;;;;2.00;2.00;;;;;19.73;60.93;101556.53;5066986;28;46168;-90
2021/08/11 03:40:46;;;;;;;;;3.33;2.00;;;;;19.87;60.98;101582.19;5062990;28;45382;-88
2021/08/11 03:43:11;;;;;;;;;2.00;2.00;;;;;19.78;61.13;101570.69;5079478;28;45411;-90
2021/08/11 03:45:37;;;;;;;;;2.00;1.67;;;;;19.71;61.17;101560.09;5076675;27;45622;-90
2021/08/11 03:48:03;;;;;;;;;1.67;1.33;;;;;19.74;60.89;101563.63;5078297;28;47569;-90
2021/08/11 03:50:29;;;;;;;;;1.67;1.67;;;;;19.78;61.19;101589.38;5062382;28;45323;-89
2021/08/11 03:52:54;;;;;;;;;1.67;1.33;;;;;19.67;61.14;101567.25;5077635;28;45376;-90
2021/08/11 03:55:20;;;;;;;;;2.00;2.00;;;;;19.72;61.19;101578.75;5061489;28;45393;-91
2021/08/11 03:57:45;;;;;;;;;2.00;2.00;;;;;19.67;61.31;101565.44;5060262;28;45808;-91
2021/08/11 04:00:11;;;;;;;;;2.33;2.33;;;;;19.75;61.51;101584.09;5061509;28;45257;-91
2021/08/11 04:02:37;;;;;;;;;3.67;3.33;;;;;19.75;61.71;101586.75;5063860;28;45393;-89
2021/08/11 04:05:04;;;;;;;;;2.00;2.00;;;;;19.72;61.86;101576.09;5080531;28;45403;-90
2021/08/11 04:07:30;;;;;;;;;3.67;3.67;;;;;19.84;61.71;101598.25;5063980;28;47902;-90
2021/08/11 04:09:55;;;;;;;;;3.00;2.00;;;;;19.70;61.69;101572.53;5063799;28;45390;-89
2021/08/11 04:12:21;;;;;;;;;1.33;1.33;;;;;19.86;61.67;101591.13;5062083;28;45540;-89
2021/08/11 04:14:46;;;;;;;;;2.33;2.33;;;;;19.74;62.19;101576.06;5062367;28;45354;-88
2021/08/11 04:17:12;;;;;;;;;5.00;3.33;;;;;19.76;61.99;101579.59;5059938;28;46809;-89
2021/08/11 04:19:37;;;;;;;;;4.00;2.00;;;;;19.82;61.71;101589.38;5062495;28;45448;-90
2021/08/11 04:22:03;;;;;;;;;2.67;2.67;;;;;19.82;61.97;101586.69;5058319;28;45292;-90
2021/08/11 04:24:29;;;;;;;;;4.00;2.00;;;;;19.85;62.50;101584.88;5059904;28;45328;-89
2021/08/11 04:26:54;;;;;;;;;4.33;2.00;;;;;19.90;62.73;101599.06;5061237;28;46355;-88
2021/08/11 04:29:20;;;;;;;;;3.00;3.00;;;;;19.82;62.67;101584.03;5059299;28;45455;-89
2021/08/11 04:31:45;;;;;;;;;3.00;3.00;;;;;19.81;62.66;101584.91;5075857;28;45307;-89
2021/08/11 04:34:11;;;;;;;;;2.67;1.67;;;;;19.85;63.01;101597.34;5056913;28;45540;-88
2021/08/11 04:36:36;;;;;;;;;5.00;3.00;;;;;19.86;62.96;101601.78;5056838;28;48361;-89
2021/08/11 04:39:02;;;;;;;;;4.67;3.33;;;;;19.87;63.15;101607.09;5077703;28;45983;-90
2021/08/11 04:41:27;;;;;;;;;4.00;3.00;;;;;19.72;63.51;101575.19;5061490;28;45374;-90
2021/08/11 04:43:53;;;;;;;;;4.00;4.00;;;;;19.74;63.16;101590.31;5060894;28;45545;-90
2021/08/11 04:46:18;;;;;;;;;4.33;3.00;;;;;19.74;63.28;101592.97;5070124;28;45865;-90
2021/08/11 04:48:44;;;;;;;;;3.00;3.00;;;;;19.81;63.59;101600.91;5084051;28;45339;-90
2021/08/11 04:51:09;;;;;;;;;4.33;3.00;;;;;19.71;63.57;101585.00;5084537;28;45145;-90
2021/08/11 04:53:35;;;;;;;;;3.00;3.00;;;;;19.74;63.58;101592.97;5086429;28;44774;-89
2021/08/11 04:56:00;;;;;;;;;3.33;3.33;;;;;19.83;64.04;101610.69;5073195;28;45285;-90
2021/08/11 04:58:26;;;;;;;;;2.67;2.67;;;;;19.82;64.21;101613.38;5060305;28;45428;-90
2021/08/11 05:00:51;;;;;;;;;4.00;4.00;;;;;19.77;64.08;101600.97;5058820;28;45433;-90
2021/08/11 05:03:16;;;;;;;;;3.67;3.67;;;;;19.67;64.09;101584.13;5075384;27;45449;-89
2021/08/11 05:05:42;;;;;;;;;6.00;4.00;;;;;19.76;64.25;101598.28;5059219;28;48719;-89
2021/08/11 05:08:07;;;;;;;;;3.33;3.00;;;;;19.81;64.50;101620.50;5060391;28;45338;-79
2021/08/11 05:10:33;;;;;;;;;3.00;3.00;;;;;19.82;64.37;101616.06;5058939;28;45248;-79
2021/08/11 05:12:59;;;;;;;;;3.00;3.00;;;;;19.82;64.33;101613.38;5059972;28;45446;-79
2021/08/11 05:15:24;;;;;;;;;5.00;3.00;;;;;19.82;64.65;101624.91;5059284;28;46076;-79
2021/08/11 05:17:49;;;;;;;;;4.00;4.00;;;;;19.82;64.52;101624.06;5059276;28;45374;-79
2021/08/11 05:20:15;;;;;;;;;5.00;3.00;;;;;19.83;64.62;101625.81;5059476;28;45343;-81
2021/08/11 05:22:41;;;;;;;;;3.00;3.00;;;;;19.84;64.63;101635.59;5059591;28;45329;-79
2021/08/11 05:25:07;;;;;;;;;3.00;3.00;;;;;19.83;64.20;101623.13;5059291;28;45472;-79
2021/08/11 05:27:32;;;;;;;;;4.33;2.33;;;;;19.84;64.49;101627.59;5059109;28;45429;-79
2021/08/11 05:29:58;;;;;;;;;4.00;4.00;;;;;19.84;64.63;101633.78;5059545;28;45477;-78
2021/08/11 05:32:23;;;;;;;;;5.00;3.00;;;;;19.84;64.73;101639.13;5059110;28;45397;-80
2021/08/11 05:34:48;;;;;;;;;5.00;4.00;;;;;19.83;64.78;101636.47;5057465;28;46125;-80
2021/08/11 05:37:14;;;;;;;;;4.00;2.00;;;;;19.81;64.94;101632.94;5059312;28;45315;-77
2021/08/11 05:39:40;;;;;;;;;4.00;4.00;;;;;19.83;64.92;101642.72;5059214;28;45402;-79
2021/08/11 05:42:05;;;;;;;;;4.33;3.00;;;;;19.81;65.09;101639.16;5059250;28;45436;-81
2021/08/11 05:44:32;;;;;;;;;5.33;3.67;;;;;19.82;65.08;101640.91;5058974;28;45417;-79
2021/08/11 05:46:57;;;;;;;;;6.00;4.67;;;;;19.83;65.51;101642.72;5059195;28;45180;-79
2021/08/11 05:49:23;;;;;;;;;4.33;3.33;;;;;19.83;65.34;101642.72;5058956;28;45540;-79
2021/08/11 05:51:48;;;;;;;;;5.00;4.00;;;;;19.85;65.38;101646.25;5058910;28;45355;-80
2021/08/11 05:54:14;;;;;;;;;7.00;4.00;;;;;19.86;65.59;101655.16;5058805;28;47564;-80
2021/08/11 05:56:39;;;;;;;;;6.33;5.00;;;;;19.88;65.75;101651.56;5058695;28;45337;-80
2021/08/11 05:59:05;;;;;;;;;4.33;3.33;;;;;19.92;65.74;101659.56;5058933;28;45526;-79
2021/08/11 06:01:30;;;;;;;;;5.00;3.00;;;;;19.94;65.58;101655.97;5058934;28;45329;-80
2021/08/11 06:03:57;;;;;;;;;4.00;4.00;;;;;19.97;65.96;101655.94;5058359;28;46437;-79
2021/08/11 06:06:24;;;;;;;;;4.00;4.00;;;;;20.01;65.42;101663.03;5058510;28;45367;-78
2021/08/11 06:08:49;;;;;;;;;4.00;4.00;;;;;20.06;65.30;101664.78;5058651;28;45302;-79
2021/08/11 06:11:15;;;;;;;;;5.33;5.00;;;;;20.08;65.70;101663.91;5058979;28;45327;-78
2021/08/11 06:13:40;;;;;;;;;3.33;3.33;;;;;20.12;65.65;101668.31;5058516;28;46101;-80
2021/08/11 06:16:05;;;;;;;;;3.67;3.67;;;;;20.18;65.33;101670.06;5058673;28;45508;-79
2021/08/11 06:18:31;;;;;;;;;6.33;3.33;;;;;20.21;65.52;101670.03;5057420;28;45283;-79
2021/08/11 06:20:56;;;;;;;;;7.33;3.67;;;;;20.25;65.05;101665.56;5058286;28;45274;-79
2021/08/11 06:23:22;;;;;;;;;6.33;4.00;;;;;20.29;65.41;101669.06;5058392;28;47023;-78
2021/08/11 06:25:48;;;;;;;;;4.00;4.00;;;;;20.30;65.45;101669.09;5058236;28;45344;-79
2021/08/11 06:28:14;;;;;;;;;5.67;5.67;;;;;20.32;65.45;101666.41;5058701;28;45264;-80
2021/08/11 06:30:39;;;;;;;;;5.33;5.00;;;;;20.32;65.45;101663.72;5058699;28;45473;-78
2021/08/11 06:33:05;;;;;;;;;3.00;3.00;;;;;;;;5059151;28;46050;-86
2021/08/11 06:35:30;;;;;;;;;5.00;4.67;;;;;20.38;64.97;101665.44;5060054;28;45396;-84
2021/08/11 06:37:56;;;;;;;;;4.33;4.00;;;;;20.40;64.89;101669.88;5059214;28;45350;-86
2021/08/11 06:40:22;;;;;;;;;7.00;5.00;;;;;20.33;65.13;101661.03;5060180;28;45344;-83
2021/08/11 06:42:49;;;;;;;;;4.00;4.00;;;;;20.45;65.04;101673.38;5059614;28;45896;-84
2021/08/11 06:45:15;;;;;;;;;4.33;3.67;;;;;20.41;64.86;101674.31;5059972;28;45236;-85
2021/08/11 06:47:41;;;;;;;;;4.00;4.00;;;;;20.48;64.57;101689.38;5060072;28;45873;-86
2021/08/11 06:50:08;;;;;;;;;3.00;3.00;;;;;20.50;65.02;101678.69;5060979;28;45338;-86
2021/08/11 06:52:34;;;;;;;;;4.33;4.00;;;;;20.51;64.28;101674.22;5060662;28;48532;-85
2021/08/11 06:55:11;;;;;;;;;8.00;5.00;;;;;20.52;65.00;101673.34;5059653;28;45437;-84
2021/08/11 06:57:36;;;;;;;;;3.67;3.33;;;;;20.53;64.38;101672.44;5064627;28;45163;-85
2021/08/11 07:00:04;;;;;;;;;4.00;4.00;;;;;20.53;64.59;101675.09;5082168;28;44767;-83
2021/08/11 07:02:29;;;;;;;;;5.67;4.00;;;;;20.52;64.91;101668.88;5082639;27;45335;-84
2021/08/11 07:04:54;;;;;;;;;4.00;4.00;;;;;20.53;64.86;101673.31;5082239;28;45276;-85
2021/08/11 07:07:20;;;;;;;;;3.67;3.00;;;;;20.48;64.43;101654.66;5082191;28;44874;-85
2021/08/11 07:09:45;;;;;;;;;4.67;3.67;;;;;20.44;64.37;101650.25;5078837;28;45259;-87
2021/08/11 07:12:11;;;;;;;;;4.67;4.00;;;;;20.51;63.91;101666.22;5081012;28;45264;-85
2021/08/11 07:14:36;;;;;;;;;6.67;3.67;;;;;20.51;63.94;101674.22;5083320;28;44751;-85
2021/08/11 07:17:01;;;;;;;;;6.00;4.00;;;;;20.50;63.60;101673.34;5084552;27;44685;-85
2021/08/11 07:19:27;;;;;;;;;4.00;4.00;;;;;20.49;63.79;101676.94;5077337;28;45401;-86
2021/08/11 07:21:52;;;;;;;;;6.00;5.00;;;;;20.50;64.36;101680.47;5061315;28;46063;-85
2021/08/11 07:24:18;;;;;;;;;7.33;4.00;;;;;20.46;63.97;101679.63;5061194;28;45327;-84
2021/08/11 07:26:44;;;;;;;;;3.67;3.67;;;;;20.51;63.17;101692.94;5060182;28;45249;-87
2021/08/11 07:29:09;;;;;;;;;4.33;4.00;;;;;20.50;63.74;101688.47;5059613;28;45226;-87
2021/08/11 07:31:35;;;;;;;;;5.00;3.67;;;;;20.53;63.64;101691.13;5058929;28;45335;-86
2021/08/11 07:34:00;;;;;;;;;3.33;0.33;;;;;20.51;63.45;101683.13;5058967;28;45278;-86
2021/08/11 07:36:25;;;;;;;;;6.67;4.00;;;;;20.59;63.19;101697.31;5058207;28;45666;-85
2021/08/11 07:38:51;;;;;;;;;4.00;2.00;;;;;20.60;63.28;101687.53;5059093;28;45432;-86
2021/08/11 07:41:16;;;;;;;;;3.67;3.00;;;;;20.67;64.11;101691.00;5057667;28;45394;-85
2021/08/11 07:43:42;;;;;;;;;3.33;3.00;;;;;20.68;63.97;101693.66;5057889;28;45244;-87
2021/08/11 07:46:07;;;;;;;;;6.00;3.00;;;;;20.76;63.97;101698.03;5058091;28;45274;-87
2021/08/11 07:48:33;;;;;;;;;3.00;3.00;;;;;20.79;63.49;101698.88;5058121;28;45410;-85
2021/08/11 07:50:59;;;;;;;;;3.00;3.00;;;;;20.89;63.59;101705.03;5057549;28;46650;-86
2021/08/11 07:53:24;;;;;;;;;4.00;4.00;;;;;20.95;63.81;101698.72;5057761;28;45528;-87
2021/08/11 07:55:50;;;;;;;;;2.00;2.00;;;;;21.03;63.95;101698.69;5057704;28;45338;-83
2021/08/11 07:58:15;;;;;;;;;3.33;3.00;;;;;21.04;63.56;101689.78;5060552;28;45343;-87
2021/08/11 08:00:40;;;;;;;;;4.00;4.00;;;;;21.11;63.33;101701.28;5065233;28;45315;-86
2021/08/11 08:03:06;;;;;;;;;3.67;3.00;;;;;21.11;62.50;101694.13;5061640;28;45362;-86
2021/08/11 08:05:31;;;;;;;;;2.33;2.33;;;;;21.11;62.64;101686.09;5057810;28;45354;-86
2021/08/11 08:07:56;;;;;;;;;4.00;4.00;;;;;21.08;62.25;101672.78;5056984;28;45542;-87
2021/08/11 08:10:22;;;;;;;;;3.00;3.00;;;;;21.14;62.73;101680.75;5056886;28;45303;-84
2021/08/11 08:12:48;;;;;;;;;6.00;5.00;;;;;21.19;62.21;101680.69;5055498;28;45375;-87
2021/08/11 08:15:15;;;;;;;;;4.00;4.00;;;;;21.19;62.89;101666.44;5057245;28;45478;-86
2021/08/11 08:17:41;;;;;;;;;4.00;4.00;;;;;21.25;62.15;101672.59;5057351;28;45319;-87
2021/08/11 08:20:07;;;;;;;;;4.33;4.33;;;;;21.31;62.62;101678.75;5056403;28;46273;-84
2021/08/11 08:22:33;;;;;;;;;6.00;4.00;;;;;21.35;62.39;101665.31;5056803;28;45579;-86
2021/08/11 08:25:00;;;;;;;;;3.33;3.00;;;;;21.34;62.56;101658.19;5057180;28;45381;-87
2021/08/11 08:27:27;;;;;;;;;3.67;3.00;;;;;21.39;61.61;101667.06;5057310;28;45329;-86
2021/08/11 08:29:53;;;;;;;;;5.00;4.00;;;;;21.48;62.12;101675.84;5056818;28;46189;-85
2021/08/11 08:32:19;;;;;;;;;5.33;4.33;;;;;21.52;62.12;101682.94;5055376;28;45878;-86
2021/08/11 08:34:46;;;;;;;;;2.67;2.33;;;;;21.58;61.85;101685.53;5056785;28;45422;-85
2021/08/11 08:37:11;;;;;;;;;6.00;4.33;;;;;21.64;61.46;101688.13;5057005;28;45319;-85
2021/08/11 08:39:37;;;;;;;;;4.00;4.00;;;;;21.69;61.65;101674.69;5055817;28;45737;-83
2021/08/11 08:42:04;;;;;;;;;4.33;3.67;;;;;21.86;61.49;101676.25;5056941;28;45256;-84
2021/08/11 08:44:30;;;;;;;;;4.00;3.00;;;;;22.03;60.94;101667.06;5056502;28;45329;-84
2021/08/11 08:46:56;;;;;;;;;3.00;3.00;;;;;22.28;60.88;101686.31;5056858;28;45452;-84
2021/08/11 08:49:22;;;;;;;;;4.00;3.00;;;;;22.42;60.78;101682.53;5056428;28;46952;-85
2021/08/11 08:51:53;;;;;;;;;4.67;4.00;;;;;22.47;59.89;101666.34;5056386;28;45346;-83
2021/08/11 08:54:24;;;;;;;;;4.33;3.33;;;;;22.73;59.80;101671.28;5056395;28;45421;-85
2021/08/11 08:56:49;;;;;;;;;6.33;5.33;;;;;23.11;58.54;101681.25;5056327;28;45426;-84
2021/08/11 08:59:15;;;;;;;;;4.33;4.33;;;;;23.44;58.54;101691.31;5056334;28;45504;-83
2021/08/11 09:01:41;;;;;;;;;6.00;6.00;;;;;23.77;58.87;101693.31;5056214;28;45353;-87
2021/08/11 09:04:06;;;;;;;;;5.00;5.00;;;;;24.05;57.53;101677.41;5057582;28;45426;-83
2021/08/11 09:06:34;;;;;;;;;5.00;5.00;;;;;24.42;57.81;101673.88;5057691;28;45265;-83
2021/08/11 09:09:10;;;;;;;;;4.33;4.00;;;;;24.71;56.47;101675.78;5059260;28;46450;-84
2021/08/11 09:11:42;;;;;;;;;4.67;4.67;;;;;24.92;56.17;101683.28;5058599;28;45351;-84
2021/08/11 09:14:27;;;;;;;;;6.00;5.00;;;;;25.16;55.55;101675.47;5058160;28;45650;-83
2021/08/11 09:16:59;;;;;;;;;3.33;3.33;;;;;25.38;54.27;101669.47;5059201;28;45451;-83
2021/08/11 09:19:25;;;;;;;;;4.00;4.00;;;;;25.71;54.68;101669.38;5058391;28;46678;-83
2021/08/11 09:22:01;;;;;;;;;5.00;5.00;;;;;26.03;54.06;101666.56;5058189;28;45343;-83
2021/08/11 09:24:28;;;;;;;;;6.33;5.00;;;;;26.35;52.64;101669.09;5059527;28;45299;-84
2021/08/11 09:26:54;;;;;;;;;8.33;5.00;;;;;26.61;52.36;101674.53;5057576;28;45389;-86
2021/08/11 09:29:21;;;;;;;;;6.00;6.00;;;;;26.78;51.33;101672.09;5056917;28;47025;-84
2021/08/11 09:31:46;;;;;;;;;6.00;6.00;;;;;26.90;50.59;101678.88;5055919;28;45488;-84
2021/08/11 09:34:12;;;;;;;;;6.33;5.33;;;;;27.05;50.97;101679.25;5056417;28;45288;-85
2021/08/11 09:36:54;;;;;;;;;7.33;6.00;;;;;27.24;50.52;101675.88;5056175;28;45339;-85
2021/08/11 09:39:20;;;;;;;;;4.67;4.67;;;;;27.49;50.67;101673.09;5056283;28;45340;-84
2021/08/11 09:42:04;;;;;;;;;5.67;5.67;;;;;27.54;49.80;101675.59;5056249;28;45327;-84
2021/08/11 09:44:30;;;;;;;;;7.33;7.33;;;;;27.52;47.94;101669.38;5058251;28;45576;-85
2021/08/11 09:47:11;;;;;;;;;4.67;3.33;;;;;27.66;49.43;101670.66;5057589;28;45426;-84
2021/08/11 09:49:36;;;;;;;;;5.00;3.33;;;;;27.88;49.34;101677.94;5057094;28;46194;-84
2021/08/11 09:52:03;;;;;;;;;5.33;5.33;;;;;28.11;47.97;101673.38;5059136;28;45244;-84
2021/08/11 09:54:30;;;;;;;;;4.33;4.33;;;;;28.26;47.06;101670.00;5059612;28;45389;-84
2021/08/11 09:56:57;;;;;;;;;6.00;6.00;;;;;28.21;46.80;101674.75;5059219;28;45544;-86
2021/08/11 09:59:23;;;;;;;;;5.33;5.00;;;;;28.17;47.48;101670.41;5058811;28;46242;-83
2021/08/11 10:01:49;;;;;;;;;4.67;4.00;;;;;28.18;46.70;101670.34;5058749;28;45365;-85
2021/08/11 10:04:15;;;;;;;;;4.00;4.00;;;;;28.26;47.57;101669.16;5059315;28;45374;-83
2021/08/11 10:06:45;;;;;;;;;7.67;6.00;;;;;28.42;47.63;101678.38;5059287;28;45255;-83
2021/08/11 10:09:19;;;;;;;;;6.00;5.00;;;;;28.61;47.07;101673.97;5058764;28;47079;-85
2021/08/11 10:11:51;;;;;;;;;4.67;4.00;;;;;28.84;46.62;101666.66;5058892;28;45405;-85
2021/08/11 10:14:18;;;;;;;;;6.00;6.00;;;;;28.90;45.64;101663.66;5059048;28;45275;-84
2021/08/11 10:16:45;;;;;;;;;5.67;4.67;;;;;28.81;45.01;101664.09;5058980;28;45378;-84
2021/08/11 10:19:11;;;;;;;;;6.00;6.00;;;;;28.69;45.55;101660.97;5058266;28;47130;-82
2021/08/11 10:21:48;;;;;;;;;5.00;4.33;;;;;28.57;45.93;101650.72;5058549;28;45409;-83
2021/08/11 10:24:14;;;;;;;;;7.67;6.00;;;;;28.49;46.18;101660.03;5058874;28;45269;-84
2021/08/11 10:26:40;;;;;;;;;5.67;4.67;;;;;28.39;46.30;101666.75;5058817;28;45283;-84
2021/08/11 10:29:06;;;;;;;;;5.33;5.00;;;;;28.26;45.35;101663.75;5058515;28;45268;-84
2021/08/11 10:31:33;;;;;;;;;6.67;6.33;;;;;28.02;45.46;101672.81;5058707;28;45215;-83
2021/08/11 10:34:02;;;;;;;;;6.33;5.67;;;;;27.82;45.20;101671.81;5058825;28;45433;-85
2021/08/11 10:36:31;;;;;;;;;6.00;6.00;;;;;27.60;45.89;101664.53;5058949;28;45385;-87
2021/08/11 10:38:59;;;;;;;;;4.67;4.67;;;;;27.49;47.09;101667.69;5058398;28;47241;-84
2021/08/11 10:41:33;;;;;;;;;6.00;6.00;;;;;27.31;47.10;101658.47;5058078;28;45572;-84
2021/08/11 10:44:00;;;;;;;;;6.33;5.67;;;;;27.17;47.27;101670.72;5058414;28;45465;-84
2021/08/11 10:46:40;;;;;;;;;8.00;6.67;;;;;27.03;48.14;101673.03;5058683;28;45397;-86
2021/08/11 10:49:07;;;;;;;;;7.00;5.67;;;;;26.89;47.64;101671.72;5058333;28;46404;-83
2021/08/11 10:51:42;;;;;;;;;6.67;5.33;;;;;26.79;48.07;101671.19;5056749;28;45445;-83
2021/08/11 10:54:10;;;;;;;;;6.00;4.33;;;;;26.83;48.21;101669.25;5058285;28;45376;-82
2021/08/11 10:56:55;;;;;;;;;5.33;5.33;;;;;27.09;47.70;101672.81;5058224;28;45446;-83
2021/08/11 10:59:32;;;;;;;;;5.00;5.00;;;;;27.39;46.51;101658.22;5057735;28;46280;-82
2021/08/11 11:01:59;;;;;;;;;4.00;4.00;;;;;27.64;47.11;101657.22;5056972;28;45205;-83
2021/08/11 11:04:42;;;;;;;;;9.33;5.67;;;;;27.99;46.81;101659.44;5057735;28;45348;-82
2021/08/11 11:07:11;;;;;;;;;9.67;7.00;;;;;28.35;45.88;101660.63;5058318;28;45409;-82
2021/08/11 11:09:38;;;;;;;;;8.00;5.33;;;;;28.65;45.60;101644.03;5058032;28;46193;-82
2021/08/11 11:12:15;;;;;;;;;7.67;5.67;;;;;28.95;45.47;101644.50;5057699;28;45355;-81
2021/08/11 11:15:00;;;;;;;;;5.33;5.33;;;;;29.15;44.92;101637.31;5057692;28;45312;-84
2021/08/11 11:17:30;;;;;;;;;6.00;4.67;;;;;29.26;44.06;101640.38;5058129;28;45311;-82
2021/08/11 11:20:06;;;;;;;;;6.33;6.33;;;;;29.27;43.92;101638.56;5057068;28;46338;-82
2021/08/11 11:22:37;;;;;;;;;5.67;5.67;;;;;29.24;43.67;101637.75;5057522;28;45223;-82
2021/08/11 11:25:04;;;;;;;;;5.33;5.00;;;;;29.25;43.76;101635.94;5057996;28;45369;-82
2021/08/11 11:27:42;;;;;;;;;5.00;5.00;;;;;29.26;43.21;101632.25;5058185;28;45378;-81